createdAt,value
2023-04-18T00:00:53.713Z,9.50
2023-04-18T00:03:22.232Z,9.50
2023-04-18T00:05:51.835Z,9.50
2023-04-18T00:08:18.957Z,9.50
2023-04-18T00:10:45.659Z,9.50
2023-04-18T00:13:12.867Z,9.50
2023-04-18T00:15:41.736Z,9.40
2023-04-18T00:18:08.453Z,9.40
2023-04-18T00:20:39.299Z,9.40
2023-04-18T00:23:06.319Z,9.50
2023-04-18T00:25:35.450Z,10.30
2023-04-18T00:28:02.195Z,9.50
2023-04-18T00:30:28.897Z,9.40
2023-04-18T00:32:55.634Z,9.50
2023-04-18T00:35:22.788Z,9.40
2023-04-18T00:37:49.530Z,9.40
2023-04-18T00:40:16.765Z,9.40
2023-04-18T00:42:43.450Z,9.40
2023-04-18T00:45:11.030Z,9.40
2023-04-18T00:47:37.749Z,9.50
2023-04-18T00:50:05.744Z,9.50
2023-04-18T00:52:34.826Z,9.40
2023-04-18T00:55:03.780Z,9.40
2023-04-18T00:57:31.682Z,9.40
2023-04-18T01:00:09.760Z,9.50
2023-04-18T01:02:37.558Z,9.50
2023-04-18T01:05:04.813Z,9.40
2023-04-18T01:07:36.663Z,9.40
2023-04-18T01:10:05.362Z,9.40
2023-04-18T01:12:33.055Z,9.40
2023-04-18T01:15:01.170Z,9.30
2023-04-18T01:17:28.492Z,9.40
2023-04-18T01:19:57.040Z,9.30
2023-04-18T01:22:24.550Z,9.30
2023-04-18T01:24:51.243Z,9.30
2023-04-18T01:27:18.105Z,9.40
2023-04-18T01:29:45.213Z,9.30
2023-04-18T01:32:12.494Z,9.30
2023-04-18T01:34:39.582Z,9.20
2023-04-18T01:37:06.401Z,9.20
2023-04-18T01:39:33.118Z,9.20
2023-04-18T01:42:01.768Z,9.20
2023-04-18T01:44:28.446Z,9.10
2023-04-18T01:46:55.263Z,9.20
2023-04-18T01:49:22.002Z,9.20
2023-04-18T01:51:48.968Z,9.20
2023-04-18T01:54:16.478Z,9.20
2023-04-18T01:56:43.605Z,9.20
2023-04-18T01:59:11.831Z,9.20
2023-04-18T02:01:38.582Z,9.10
2023-04-18T02:04:06.757Z,9.10
2023-04-18T02:06:33.482Z,9.10
2023-04-18T02:09:00.667Z,9.10
2023-04-18T02:11:27.766Z,9.10
2023-04-18T02:13:55.642Z,9.10
2023-04-18T02:16:22.406Z,9.10
2023-04-18T02:18:52.406Z,9.10
2023-04-18T02:21:19.144Z,9.10
2023-04-18T02:23:45.947Z,9.10
2023-04-18T02:26:13.047Z,9.10
2023-04-18T02:28:39.860Z,9.20
2023-04-18T02:31:14.850Z,9.10
2023-04-18T02:33:43.231Z,9.10
2023-04-18T02:36:14.796Z,9.10
2023-04-18T02:38:41.522Z,9.10
2023-04-18T02:41:09.875Z,9.30
2023-04-18T02:43:36.529Z,9.10
2023-04-18T02:46:03.263Z,9.10
2023-04-18T02:48:30.954Z,9.10
2023-04-18T02:51:08.740Z,9.10
2023-04-18T02:53:35.667Z,9.10
2023-04-18T02:56:02.974Z,9.00
2023-04-18T02:58:29.768Z,9.00
2023-04-18T03:00:58.259Z,9.10
2023-04-18T03:03:25.159Z,9.00
2023-04-18T03:05:51.910Z,9.00
2023-04-18T03:08:20.685Z,9.00
2023-04-18T03:10:47.748Z,9.00
2023-04-18T03:13:16.141Z,9.00
2023-04-18T03:15:43.560Z,9.00
2023-04-18T03:18:12.380Z,8.90
2023-04-18T03:20:41.750Z,9.00
2023-04-18T03:23:08.572Z,9.00
2023-04-18T03:25:35.570Z,8.90
2023-04-18T03:28:02.964Z,8.90
2023-04-18T03:30:29.904Z,8.90
2023-04-18T03:32:59.023Z,8.90
2023-04-18T03:35:26.433Z,9.00
2023-04-18T03:37:53.108Z,9.00
2023-04-18T03:40:20.346Z,9.00
2023-04-18T03:42:49.940Z,8.90
2023-04-18T03:45:17.058Z,8.90
2023-04-18T03:47:43.790Z,9.00
2023-04-18T03:50:10.682Z,9.00
2023-04-18T03:52:37.742Z,9.00
2023-04-18T03:55:06.201Z,8.90
2023-04-18T03:57:33.288Z,8.90
2023-04-18T04:00:00.006Z,9.00
2023-04-18T04:02:26.812Z,8.90
2023-04-18T04:04:54.308Z,8.90
2023-04-18T04:07:21.048Z,9.00
2023-04-18T04:09:48.204Z,9.00
2023-04-18T04:12:14.983Z,9.00
2023-04-18T04:14:41.986Z,9.00
2023-04-18T04:17:11.777Z,9.00
2023-04-18T04:19:38.441Z,8.90
2023-04-18T04:22:05.361Z,8.90
2023-04-18T04:24:33.670Z,8.90
2023-04-18T04:27:01.180Z,9.00
2023-04-18T04:29:29.179Z,8.90
2023-04-18T04:31:55.923Z,8.90
2023-04-18T04:34:23.142Z,8.90
2023-04-18T04:36:51.524Z,9.00
2023-04-18T04:39:18.653Z,8.90
2023-04-18T04:41:47.625Z,8.90
2023-04-18T04:44:17.659Z,9.00
2023-04-18T04:46:45.993Z,9.00
2023-04-18T04:49:13.126Z,9.00
2023-04-18T04:51:40.280Z,9.00
2023-04-18T04:54:07.500Z,8.90
2023-04-18T04:56:34.651Z,9.00
2023-04-18T04:59:02.307Z,8.90
2023-04-18T05:01:29.091Z,9.00
2023-04-18T05:03:56.304Z,9.00
2023-04-18T05:06:23.936Z,9.00
2023-04-18T05:08:51.569Z,9.00
2023-04-18T05:11:20.454Z,9.00
2023-04-18T05:13:47.892Z,9.00
2023-04-18T05:16:14.679Z,9.00
2023-04-18T05:18:42.861Z,9.10
2023-04-18T05:21:11.162Z,9.00
2023-04-18T05:23:38.737Z,9.00
2023-04-18T05:26:06.442Z,9.00
2023-04-18T05:28:35.561Z,9.20
2023-04-18T05:31:04.022Z,9.20
2023-04-18T05:33:32.173Z,9.20
2023-04-18T05:35:59.884Z,9.20
2023-04-18T05:38:29.700Z,9.10
2023-04-18T05:40:57.581Z,9.20
2023-04-18T05:43:25.893Z,9.10
2023-04-18T05:45:53.320Z,9.20
2023-04-18T05:48:23.755Z,9.20
2023-04-18T05:50:58.499Z,9.30
2023-04-18T05:53:25.800Z,9.30
2023-04-18T05:55:58.619Z,9.40
2023-04-18T05:58:25.900Z,9.40
2023-04-18T06:00:53.679Z,9.50
2023-04-18T06:03:22.022Z,9.50
2023-04-18T06:05:50.301Z,9.40
2023-04-18T06:08:18.515Z,9.40
2023-04-18T06:10:47.306Z,9.40
2023-04-18T06:13:16.161Z,9.40
2023-04-18T06:15:43.604Z,9.40
2023-04-18T06:18:10.320Z,9.30
2023-04-18T06:20:40.526Z,9.30
2023-04-18T06:23:08.853Z,9.30
2023-04-18T06:25:42.730Z,9.30
2023-04-18T06:28:09.658Z,9.30
2023-04-18T06:30:36.861Z,9.30
2023-04-18T06:33:03.773Z,9.20
2023-04-18T06:35:32.305Z,9.30
2023-04-18T06:38:00.260Z,9.40
2023-04-18T06:40:27.009Z,9.40
2023-04-18T06:42:53.897Z,9.40
2023-04-18T06:45:33.905Z,9.40
2023-04-18T06:48:11.019Z,9.40
2023-04-18T06:50:52.521Z,9.40
2023-04-18T06:53:20.998Z,9.40
2023-04-18T06:55:48.069Z,9.50
2023-04-18T06:58:20.469Z,9.50
2023-04-18T07:00:52.443Z,9.70
2023-04-18T07:03:22.006Z,9.60
2023-04-18T07:05:50.781Z,9.50
2023-04-18T07:08:18.901Z,9.90
2023-04-18T07:10:45.977Z,9.60
2023-04-18T07:13:15.423Z,9.70
2023-04-18T07:15:46.281Z,9.70
2023-04-18T07:18:18.150Z,9.70
2023-04-18T07:20:51.890Z,9.70
2023-04-18T07:23:19.898Z,9.80
2023-04-18T07:25:46.625Z,9.80
2023-04-18T07:28:13.758Z,9.70
2023-04-18T07:30:40.556Z,9.90
2023-04-18T07:33:07.747Z,9.90
2023-04-18T07:35:36.181Z,9.90
2023-04-18T07:38:03.092Z,9.90
2023-04-18T07:40:31.498Z,9.90
2023-04-18T07:43:00.179Z,10.20
2023-04-18T07:45:27.065Z,10.20
2023-04-18T07:47:55.343Z,9.90
2023-04-18T07:50:22.548Z,10.00
2023-04-18T07:52:49.669Z,10.00
2023-04-18T07:55:18.876Z,10.00
2023-04-18T07:57:50.424Z,10.10
2023-04-18T08:00:19.104Z,10.10
2023-04-18T08:02:46.808Z,10.20
2023-04-18T08:05:14.124Z,10.10
2023-04-18T08:07:42.160Z,10.10
2023-04-18T08:10:09.248Z,10.20
2023-04-18T08:12:36.852Z,10.20
2023-04-18T08:15:04.791Z,10.30
2023-04-18T08:17:31.562Z,10.40
2023-04-18T08:20:05.901Z,10.50
2023-04-18T08:22:33.520Z,10.40
2023-04-18T08:25:05.002Z,10.50
2023-04-18T08:27:37.115Z,10.60
2023-04-18T08:30:05.533Z,10.60
2023-04-18T08:32:34.046Z,10.80
2023-04-18T08:35:01.475Z,10.90
2023-04-18T08:37:29.153Z,10.90
2023-04-18T08:39:57.050Z,10.80
2023-04-18T08:42:24.266Z,10.80
2023-04-18T08:44:54.414Z,10.80
2023-04-18T08:47:23.043Z,10.90
2023-04-18T08:49:49.776Z,10.90
2023-04-18T08:52:18.029Z,10.70
2023-04-18T08:54:47.280Z,10.60
2023-04-18T08:57:24.007Z,10.60
2023-04-18T08:59:53.478Z,10.50
2023-04-18T09:02:26.812Z,10.60
2023-04-18T09:04:54.318Z,10.70
2023-04-18T09:07:28.510Z,10.80
2023-04-18T09:09:59.890Z,11.30
2023-04-18T09:12:28.206Z,10.80
2023-04-18T09:15:10.941Z,11.00
2023-04-18T09:17:43.958Z,11.30
2023-04-18T09:20:15.497Z,11.40
2023-04-18T09:22:51.942Z,11.50
2023-04-18T09:25:42.015Z,11.70
2023-04-18T09:28:31.059Z,11.60
2023-04-18T09:31:10.247Z,11.60
2023-04-18T09:33:37.750Z,11.70
2023-04-18T09:36:24.048Z,11.70
2023-04-18T09:38:55.292Z,11.70
2023-04-18T09:41:23.361Z,11.80
2023-04-18T09:43:52.505Z,11.50
2023-04-18T09:46:22.057Z,11.70
2023-04-18T09:48:48.795Z,11.90
2023-04-18T09:51:17.698Z,12.00
2023-04-18T09:53:48.044Z,11.90
2023-04-18T09:56:26.136Z,12.00
2023-04-18T09:59:00.536Z,12.10
2023-04-18T10:01:30.918Z,12.30
2023-04-18T10:04:07.110Z,12.20
2023-04-18T10:06:35.208Z,12.10
2023-04-18T10:09:09.403Z,11.90
2023-04-18T10:11:37.434Z,11.90
2023-04-18T10:14:20.434Z,12.00
2023-04-18T10:16:49.251Z,12.10
2023-04-18T10:19:47.474Z,11.70
2023-04-18T10:22:14.201Z,11.70
2023-04-18T10:24:56.442Z,11.60
2023-04-18T10:27:56.066Z,11.60
2023-04-18T10:30:46.019Z,11.70
2023-04-18T10:33:32.126Z,12.00
2023-04-18T10:36:15.654Z,12.10
2023-04-18T10:38:53.410Z,12.30
2023-04-18T10:41:22.108Z,12.20
2023-04-18T10:44:08.407Z,12.10
2023-04-18T10:46:38.477Z,12.10
2023-04-18T10:49:16.349Z,12.10
2023-04-18T10:51:45.658Z,12.20
2023-04-18T10:54:19.918Z,12.60
2023-04-18T10:56:57.041Z,13.40
2023-04-18T10:59:25.655Z,14.20
2023-04-18T11:01:59.485Z,14.20
2023-04-18T11:04:26.781Z,13.80
2023-04-18T11:06:58.475Z,13.40
2023-04-18T11:09:28.326Z,13.50
2023-04-18T11:12:09.137Z,13.50
2023-04-18T11:14:42.384Z,13.70
2023-04-18T11:17:22.056Z,13.80
2023-04-18T11:19:49.386Z,13.80
2023-04-18T11:22:17.295Z,13.60
2023-04-18T11:24:45.710Z,13.80
2023-04-18T11:27:13.258Z,14.00
2023-04-18T11:29:40.385Z,13.80
2023-04-18T11:32:08.321Z,13.80
2023-04-18T11:34:35.995Z,13.80
2023-04-18T11:37:07.497Z,13.80
2023-04-18T11:39:36.356Z,14.00
2023-04-18T11:42:03.182Z,13.80
2023-04-18T11:44:30.391Z,14.20
2023-04-18T11:46:57.808Z,14.00
2023-04-18T11:49:33.654Z,13.60
2023-04-18T11:52:01.396Z,13.30
2023-04-18T11:54:45.613Z,13.00
2023-04-18T11:57:28.549Z,13.00
2023-04-18T12:00:01.115Z,13.10
2023-04-18T12:02:43.975Z,13.10
2023-04-18T12:05:12.554Z,13.20
2023-04-18T12:07:44.810Z,12.80
2023-04-18T12:10:21.312Z,12.90
2023-04-18T12:12:49.496Z,13.10
2023-04-18T12:15:17.974Z,13.30
2023-04-18T12:17:57.080Z,13.20
2023-04-18T12:20:26.509Z,13.20
2023-04-18T12:22:55.361Z,13.40
2023-04-18T12:25:27.912Z,13.40
2023-04-18T12:27:56.705Z,13.50
2023-04-18T12:30:29.641Z,13.40
2023-04-18T12:33:04.194Z,13.30
2023-04-18T12:35:33.025Z,13.20
2023-04-18T12:38:02.889Z,13.20
2023-04-18T12:40:31.268Z,13.20
2023-04-18T12:42:58.544Z,13.50
2023-04-18T12:45:25.968Z,13.80
2023-04-18T12:47:54.609Z,14.00
2023-04-18T12:50:26.442Z,14.00
2023-04-18T12:52:55.206Z,14.10
2023-04-18T12:55:26.069Z,14.20
2023-04-18T12:57:54.837Z,14.30
2023-04-18T13:00:24.008Z,14.60
2023-04-18T13:02:52.775Z,14.80
2023-04-18T13:05:24.895Z,15.00
2023-04-18T13:07:58.603Z,14.40
2023-04-18T13:10:29.168Z,14.20
2023-04-18T13:12:55.889Z,14.30
2023-04-18T13:15:24.534Z,14.50
2023-04-18T13:17:51.373Z,14.70
2023-04-18T13:20:18.854Z,14.50
2023-04-18T13:22:47.184Z,14.70
2023-04-18T13:25:16.614Z,14.60
2023-04-18T13:27:46.616Z,14.50
2023-04-18T13:30:13.509Z,14.40
2023-04-18T13:32:41.475Z,14.40
2023-04-18T13:35:11.039Z,14.20
2023-04-18T13:37:38.351Z,14.10
2023-04-18T13:40:07.161Z,14.10
2023-04-18T13:42:37.199Z,14.10
2023-04-18T13:45:06.317Z,14.20
2023-04-18T13:47:35.571Z,14.20
2023-04-18T13:50:02.531Z,14.30
2023-04-18T13:52:29.806Z,14.50
2023-04-18T13:54:56.817Z,14.40
2023-04-18T13:57:24.631Z,14.20
2023-04-18T13:59:51.516Z,13.80
2023-04-18T14:02:18.556Z,13.50
2023-04-18T14:04:45.576Z,13.50
2023-04-18T14:07:12.347Z,13.60
2023-04-18T14:09:39.970Z,13.60
2023-04-18T14:12:07.424Z,13.90
2023-04-18T14:14:34.168Z,14.10
2023-04-18T14:17:00.878Z,14.20
2023-04-18T14:19:30.426Z,14.40
2023-04-18T14:21:57.151Z,14.50
2023-04-18T14:24:24.188Z,14.70
2023-04-18T14:26:51.252Z,14.80
2023-04-18T14:29:17.996Z,14.70
2023-04-18T14:31:44.952Z,14.30
2023-04-18T14:34:11.893Z,14.10
2023-04-18T14:36:38.999Z,14.30
2023-04-18T14:39:05.801Z,14.40
2023-04-18T14:41:36.822Z,14.40
2023-04-18T14:44:04.399Z,14.40
2023-04-18T14:46:31.781Z,14.20
2023-04-18T14:48:58.972Z,14.40
2023-04-18T14:51:26.824Z,14.30
2023-04-18T14:53:55.580Z,14.20
2023-04-18T14:56:24.247Z,14.40
2023-04-18T14:58:51.522Z,14.10
2023-04-18T15:01:18.591Z,14.40
2023-04-18T15:03:52.286Z,14.60
2023-04-18T15:06:19.090Z,14.80
2023-04-18T15:08:46.973Z,14.90
2023-04-18T15:11:13.880Z,15.00
2023-04-18T15:13:40.993Z,15.10
2023-04-18T15:16:08.449Z,14.90
2023-04-18T15:18:36.937Z,14.90
2023-04-18T15:21:04.110Z,14.80
2023-04-18T15:23:30.809Z,14.70
2023-04-18T15:25:57.618Z,14.70
2023-04-18T15:28:25.736Z,14.60
2023-04-18T15:30:52.436Z,14.50
2023-04-18T15:33:21.224Z,14.50
2023-04-18T15:35:48.003Z,14.50
2023-04-18T15:38:15.058Z,14.50
2023-04-18T15:40:43.800Z,14.10
2023-04-18T15:43:10.554Z,14.10
2023-04-18T15:45:40.020Z,14.00
2023-04-18T15:48:07.240Z,14.00
2023-04-18T15:50:35.821Z,13.90
2023-04-18T15:53:02.625Z,14.00
2023-04-18T15:55:30.090Z,13.90
2023-04-18T15:57:58.958Z,13.80
2023-04-18T16:00:26.724Z,13.80
2023-04-18T16:02:54.006Z,13.80
2023-04-18T16:05:21.265Z,13.90
2023-04-18T16:07:50.335Z,13.70
2023-04-18T16:10:17.474Z,13.70
2023-04-18T16:12:45.840Z,13.70
2023-04-18T16:15:13.469Z,13.70
2023-04-18T16:17:40.309Z,13.80
2023-04-18T16:20:09.510Z,13.90
2023-04-18T16:22:37.252Z,13.80
2023-04-18T16:25:05.296Z,13.60
2023-04-18T16:27:33.076Z,13.60
2023-04-18T16:29:59.890Z,13.50
2023-04-18T16:32:26.681Z,13.60
2023-04-18T16:34:56.631Z,13.60
2023-04-18T16:37:23.581Z,13.50
2023-04-18T16:39:50.733Z,13.50
2023-04-18T16:42:17.411Z,13.50
2023-04-18T16:44:47.360Z,13.60
2023-04-18T16:47:14.324Z,13.50
2023-04-18T16:49:43.549Z,13.50
2023-04-18T16:52:10.473Z,13.60
2023-04-18T16:54:37.392Z,13.60
2023-04-18T16:57:04.972Z,13.50
2023-04-18T16:59:31.672Z,13.50
2023-04-18T17:01:59.560Z,13.50
2023-04-18T17:04:28.791Z,13.40
2023-04-18T17:06:56.599Z,13.40
2023-04-18T17:09:25.642Z,13.40
2023-04-18T17:11:52.781Z,13.30
2023-04-18T17:14:19.456Z,13.20
2023-04-18T17:16:46.425Z,13.20
2023-04-18T17:19:13.324Z,13.20
2023-04-18T17:21:41.106Z,13.20
2023-04-18T17:24:08.106Z,13.20
2023-04-18T17:26:38.753Z,13.20
2023-04-18T17:29:05.916Z,13.20
2023-04-18T17:31:33.415Z,13.20
2023-04-18T17:34:01.507Z,13.10
2023-04-18T17:36:28.284Z,13.10
2023-04-18T17:38:55.828Z,13.10
2023-04-18T17:41:24.071Z,13.10
2023-04-18T17:43:51.468Z,13.10
2023-04-18T17:46:18.687Z,13.10
2023-04-18T17:48:47.098Z,13.00
2023-04-18T17:51:16.614Z,13.00
2023-04-18T17:53:43.692Z,12.90
2023-04-18T17:56:14.170Z,12.90
2023-04-18T17:58:41.245Z,12.90
2023-04-18T18:01:19.125Z,12.90
2023-04-18T18:03:47.461Z,12.90
2023-04-18T18:06:15.424Z,12.80
2023-04-18T18:08:43.192Z,12.80
2023-04-18T18:11:10.803Z,12.60
2023-04-18T18:13:39.357Z,12.60
2023-04-18T18:16:07.208Z,12.60
2023-04-18T18:18:34.438Z,12.60
2023-04-18T18:21:01.213Z,12.80
2023-04-18T18:23:30.602Z,12.70
2023-04-18T18:25:59.181Z,12.60
2023-04-18T18:28:26.051Z,12.70
2023-04-18T18:30:54.089Z,12.70
2023-04-18T18:33:21.013Z,12.60
2023-04-18T18:35:48.132Z,12.60
2023-04-18T18:38:14.849Z,12.60
2023-04-18T18:40:42.239Z,12.50
2023-04-18T18:43:09.238Z,12.50
2023-04-18T18:45:39.889Z,12.50
2023-04-18T18:48:10.413Z,12.40
2023-04-18T18:50:37.667Z,12.40
2023-04-18T18:53:07.210Z,12.50
2023-04-18T18:55:34.319Z,12.40
2023-04-18T18:58:02.149Z,12.40
2023-04-18T19:00:29.012Z,12.50
2023-04-18T19:02:55.847Z,12.50
2023-04-18T19:05:22.749Z,12.40
2023-04-18T19:07:51.438Z,12.40
2023-04-18T19:10:18.299Z,12.40
2023-04-18T19:12:45.648Z,12.40
2023-04-18T19:15:13.597Z,12.50
2023-04-18T19:17:40.426Z,12.40
2023-04-18T19:20:08.189Z,12.40
2023-04-18T19:22:37.577Z,12.40
2023-04-18T19:25:05.121Z,12.40
2023-04-18T19:27:32.248Z,12.50
2023-04-18T19:29:59.007Z,12.40
2023-04-18T19:32:31.966Z,12.40
2023-04-18T19:35:00.041Z,12.40
2023-04-18T19:37:26.887Z,12.40
2023-04-18T19:39:57.239Z,12.30
2023-04-18T19:42:24.352Z,12.30
2023-04-18T19:44:51.057Z,12.30
2023-04-18T19:47:17.849Z,12.40
2023-04-18T19:49:44.513Z,12.40
2023-04-18T19:52:11.440Z,12.30
2023-04-18T19:54:39.106Z,12.30
2023-04-18T19:57:07.098Z,12.30
2023-04-18T19:59:33.797Z,12.40
2023-04-18T20:02:03.445Z,12.40
2023-04-18T20:04:34.560Z,12.40
2023-04-18T20:07:01.502Z,12.30
2023-04-18T20:09:28.752Z,12.30
2023-04-18T20:11:57.817Z,12.30
2023-04-18T20:14:25.063Z,12.30
2023-04-18T20:16:52.291Z,12.30
2023-04-18T20:19:19.972Z,12.30
2023-04-18T20:21:47.849Z,12.20
2023-04-18T20:24:15.640Z,12.30
2023-04-18T20:26:42.892Z,12.30
2023-04-18T20:29:09.626Z,12.30
2023-04-18T20:31:38.162Z,12.30
2023-04-18T20:34:06.664Z,12.30
2023-04-18T20:36:34.801Z,12.20
2023-04-18T20:39:05.852Z,12.20
2023-04-18T20:41:34.884Z,12.30
2023-04-18T20:44:06.890Z,12.10
2023-04-18T20:46:34.054Z,12.10
2023-04-18T20:49:02.481Z,12.10
2023-04-18T20:51:30.365Z,12.00
2023-04-18T20:53:57.117Z,12.10
2023-04-18T20:56:24.196Z,12.10
2023-04-18T20:58:51.594Z,12.00
2023-04-18T21:01:24.685Z,12.00
2023-04-18T21:03:51.791Z,12.00
2023-04-18T21:06:23.599Z,12.00
2023-04-18T21:08:50.745Z,11.90
2023-04-18T21:11:17.629Z,11.90
2023-04-18T21:13:45.055Z,12.00
2023-04-18T21:16:12.488Z,12.00
2023-04-18T21:18:43.821Z,11.80
2023-04-18T21:21:11.030Z,11.90
2023-04-18T21:23:45.004Z,11.90
2023-04-18T21:26:14.244Z,11.90
2023-04-18T21:29:01.614Z,11.90
2023-04-18T21:31:34.570Z,11.80
2023-04-18T21:34:04.666Z,11.80
2023-04-18T21:36:32.034Z,11.70
2023-04-18T21:39:01.526Z,11.80
2023-04-18T21:41:31.248Z,11.60
2023-04-18T21:43:59.841Z,11.70
2023-04-18T21:46:26.988Z,11.70
2023-04-18T21:48:55.699Z,11.80
2023-04-18T21:51:22.989Z,11.70
2023-04-18T21:53:51.918Z,11.70
2023-04-18T21:56:18.646Z,11.70
2023-04-18T21:58:46.672Z,11.70
2023-04-18T22:01:13.988Z,11.60
2023-04-18T22:03:42.517Z,11.70
2023-04-18T22:06:10.098Z,11.70
2023-04-18T22:08:36.821Z,11.60
2023-04-18T22:11:05.170Z,11.70
2023-04-18T22:13:34.636Z,11.60
2023-04-18T22:16:03.155Z,11.50
2023-04-18T22:18:34.382Z,11.50
2023-04-18T22:21:03.259Z,11.40
2023-04-18T22:23:31.341Z,11.50
2023-04-18T22:25:58.566Z,11.40
2023-04-18T22:28:28.028Z,11.30
2023-04-18T22:30:55.239Z,11.30
2023-04-18T22:33:22.586Z,11.30
2023-04-18T22:35:49.539Z,11.30
2023-04-18T22:38:16.756Z,11.20
2023-04-18T22:40:43.873Z,11.20
2023-04-18T22:43:10.706Z,11.20
2023-04-18T22:45:37.912Z,11.20
2023-04-18T22:48:11.466Z,11.20
2023-04-18T22:50:43.013Z,11.20
2023-04-18T22:53:14.116Z,11.20
2023-04-18T22:55:42.747Z,11.20
2023-04-18T22:58:11.086Z,11.10
2023-04-18T23:00:37.830Z,11.10
2023-04-18T23:03:06.609Z,11.10
2023-04-18T23:05:35.429Z,11.10
2023-04-18T23:08:02.565Z,11.10
2023-04-18T23:10:29.786Z,11.10
2023-04-18T23:12:56.574Z,11.20
2023-04-18T23:15:23.801Z,11.00
2023-04-18T23:17:54.087Z,10.90
2023-04-18T23:20:22.374Z,10.80
2023-04-18T23:22:51.587Z,10.80
2023-04-18T23:25:19.513Z,10.80
2023-04-18T23:27:47.257Z,10.80
2023-04-18T23:30:14.246Z,10.80
2023-04-18T23:32:42.481Z,10.80
2023-04-18T23:35:11.186Z,10.70
2023-04-18T23:37:38.321Z,10.70
2023-04-18T23:40:12.773Z,10.60
2023-04-18T23:42:40.864Z,10.60
2023-04-18T23:45:08.338Z,10.60
2023-04-18T23:47:35.301Z,10.60
2023-04-18T23:50:02.453Z,10.50
2023-04-18T23:52:29.645Z,10.50
2023-04-18T23:55:06.238Z,10.50
2023-04-18T23:57:33.338Z,10.40
